createdAt,value
2022-09-23T00:01:22.299Z,6.58
2022-09-23T00:03:50.511Z,6.58
2022-09-23T00:06:20.541Z,6.59
2022-09-23T00:08:49.821Z,6.63
2022-09-23T00:11:28.497Z,6.67
2022-09-23T00:13:58.478Z,6.74
2022-09-23T00:16:30.091Z,6.79
2022-09-23T00:18:58.449Z,6.82
2022-09-23T00:21:26.194Z,6.86
2022-09-23T00:23:53.943Z,6.89
2022-09-23T00:26:23.139Z,6.92
2022-09-23T00:28:51.270Z,6.94
2022-09-23T00:31:21.802Z,6.93
2022-09-23T00:33:55.277Z,6.92
2022-09-23T00:36:23.901Z,6.89
2022-09-23T00:38:51.813Z,6.86
2022-09-23T00:41:20.001Z,6.84
2022-09-23T00:43:47.734Z,6.82
2022-09-23T00:46:19.649Z,6.80
2022-09-23T00:48:48.912Z,6.78
2022-09-23T00:51:20.985Z,6.76
2022-09-23T00:53:50.461Z,6.74
2022-09-23T00:56:20.316Z,6.72
2022-09-23T00:58:49.973Z,6.70
2022-09-23T01:01:17.842Z,6.68
2022-09-23T01:03:47.416Z,6.66
2022-09-23T01:06:15.529Z,6.62
2022-09-23T01:08:44.838Z,6.58
2022-09-23T01:11:24.490Z,6.55
2022-09-23T01:13:56.191Z,6.51
2022-09-23T01:16:52.505Z,6.49
2022-09-23T01:19:43.127Z,6.48
2022-09-23T01:22:10.868Z,6.45
2022-09-23T01:24:47.629Z,6.42
2022-09-23T01:27:30.547Z,6.39
2022-09-23T01:30:20.083Z,6.36
2022-09-23T01:33:11.239Z,6.32
2022-09-23T01:35:47.752Z,6.28
2022-09-23T01:38:36.943Z,6.27
2022-09-23T01:41:16.275Z,6.23
2022-09-23T01:43:54.601Z,6.21
2022-09-23T01:46:51.969Z,6.20
2022-09-23T01:49:25.615Z,6.21
2022-09-23T01:51:58.705Z,6.21
2022-09-23T01:54:34.363Z,6.25
2022-09-23T01:57:13.080Z,6.30
2022-09-23T01:59:45.548Z,6.34
2022-09-23T02:02:22.014Z,6.36
2022-09-23T02:05:16.220Z,6.38
2022-09-23T02:07:52.226Z,6.43
2022-09-23T02:10:24.463Z,6.43
2022-09-23T02:12:57.258Z,6.43
2022-09-23T02:15:34.007Z,6.42
2022-09-23T02:18:15.370Z,6.38
2022-09-23T02:20:43.559Z,6.34
2022-09-23T02:23:22.514Z,6.28
2022-09-23T02:26:08.545Z,6.23
2022-09-23T02:28:55.171Z,6.19
2022-09-23T02:32:01.608Z,6.14
2022-09-23T02:34:38.158Z,6.07
2022-09-23T02:37:21.419Z,6.02
2022-09-23T02:39:51.756Z,5.98
2022-09-23T02:42:23.539Z,5.94
2022-09-23T02:44:51.525Z,5.88
2022-09-23T02:47:24.187Z,5.83
2022-09-23T02:49:53.314Z,5.79
2022-09-23T02:52:21.236Z,5.75
2022-09-23T02:54:49.185Z,5.71
2022-09-23T02:57:17.453Z,5.70
2022-09-23T02:59:46.799Z,5.68
2022-09-23T03:02:21.617Z,5.67
2022-09-23T03:05:23.834Z,5.67
2022-09-23T03:07:59.565Z,5.64
2022-09-23T03:10:37.816Z,5.64
2022-09-23T03:13:47.003Z,5.67
2022-09-23T03:16:39.341Z,5.68
2022-09-23T03:19:27.569Z,5.71
2022-09-23T03:22:11.904Z,5.73
2022-09-23T03:24:40.260Z,5.73
2022-09-23T03:27:13.777Z,5.74
2022-09-23T03:29:45.658Z,5.75
2022-09-23T03:32:15.172Z,5.77
2022-09-23T03:34:44.666Z,5.80
2022-09-23T03:37:36.123Z,5.81
2022-09-23T03:40:12.304Z,5.82
2022-09-23T03:42:40.422Z,5.83
2022-09-23T03:45:13.045Z,5.84
2022-09-23T03:47:42.307Z,5.87
2022-09-23T03:50:10.733Z,5.89
2022-09-23T03:52:39.773Z,5.91
2022-09-23T03:55:08.241Z,5.93
2022-09-23T03:57:37.042Z,5.96
2022-09-23T04:00:06.847Z,5.98
2022-09-23T04:02:39.577Z,6.00
2022-09-23T04:05:08.255Z,6.02
2022-09-23T04:07:36.187Z,6.05
2022-09-23T04:10:05.255Z,6.08
2022-09-23T04:12:33.313Z,6.11
2022-09-23T04:15:01.196Z,6.16
2022-09-23T04:17:29.002Z,6.20
2022-09-23T04:19:56.698Z,6.24
2022-09-23T04:22:24.593Z,6.28
2022-09-23T04:24:52.288Z,6.32
2022-09-23T04:27:20.362Z,6.35
2022-09-23T04:29:48.183Z,6.40
2022-09-23T04:32:15.884Z,6.43
2022-09-23T04:34:43.574Z,6.47
2022-09-23T04:37:11.376Z,6.50
2022-09-23T04:39:39.917Z,6.53
2022-09-23T04:42:08.080Z,6.56
2022-09-23T04:44:36.688Z,6.58
2022-09-23T04:47:04.883Z,6.60
2022-09-23T04:49:33.672Z,6.63
2022-09-23T04:52:02.868Z,6.66
2022-09-23T04:54:30.695Z,6.70
2022-09-23T04:56:58.946Z,6.73
2022-09-23T04:59:26.761Z,6.78
2022-09-23T05:01:55.462Z,6.82
2022-09-23T05:04:23.404Z,6.86
2022-09-23T05:06:51.252Z,6.89
2022-09-23T05:09:19.301Z,6.92
2022-09-23T05:11:47.213Z,6.98
2022-09-23T05:14:15.056Z,7.06
2022-09-23T05:16:43.028Z,7.15
2022-09-23T05:19:13.430Z,7.23
2022-09-23T05:21:41.344Z,7.32
2022-09-23T05:24:09.933Z,7.41
2022-09-23T05:26:38.419Z,7.49
2022-09-23T05:29:06.338Z,7.59
2022-09-23T05:31:35.067Z,7.66
2022-09-23T05:34:05.032Z,7.75
2022-09-23T05:36:38.393Z,7.82
2022-09-23T05:39:07.777Z,7.88
2022-09-23T05:41:36.420Z,7.98
2022-09-23T05:44:04.479Z,8.07
2022-09-23T05:46:33.270Z,8.21
2022-09-23T05:49:03.450Z,8.36
2022-09-23T05:51:33.765Z,8.47
2022-09-23T05:54:04.138Z,8.56
2022-09-23T05:56:33.472Z,8.67
2022-09-23T05:59:02.702Z,8.75
2022-09-23T06:01:33.719Z,8.87
2022-09-23T06:04:04.031Z,8.99
2022-09-23T06:06:40.145Z,9.13
2022-09-23T06:09:13.913Z,9.31
2022-09-23T06:11:43.045Z,9.38
2022-09-23T06:14:12.871Z,9.47
2022-09-23T06:16:41.015Z,9.55
2022-09-23T06:19:09.977Z,9.70
2022-09-23T06:21:39.438Z,9.95
2022-09-23T06:24:08.164Z,10.28
2022-09-23T06:26:37.881Z,10.50
2022-09-23T06:29:14.613Z,10.77
2022-09-23T06:31:43.337Z,10.97
2022-09-23T06:34:13.681Z,11.20
2022-09-23T06:36:46.335Z,11.40
2022-09-23T06:39:15.512Z,11.47
2022-09-23T06:41:46.427Z,11.47
2022-09-23T06:44:16.675Z,11.49
2022-09-23T06:46:44.549Z,11.54
2022-09-23T06:49:13.839Z,11.38
2022-09-23T06:51:41.980Z,11.41
2022-09-23T06:54:11.181Z,11.71
2022-09-23T06:56:40.002Z,12.25
2022-09-23T06:59:10.827Z,12.77
2022-09-23T07:01:39.961Z,13.05
2022-09-23T07:04:08.627Z,13.27
2022-09-23T07:06:37.281Z,13.44
2022-09-23T07:09:08.042Z,13.62
2022-09-23T07:11:35.921Z,13.75
2022-09-23T07:14:03.811Z,13.93
2022-09-23T07:16:33.053Z,14.11
2022-09-23T07:19:00.844Z,14.47
2022-09-23T07:21:28.927Z,14.61
2022-09-23T07:23:58.277Z,14.63
2022-09-23T07:26:26.174Z,14.78
2022-09-23T07:28:57.836Z,14.78
2022-09-23T07:31:37.211Z,14.75
2022-09-23T07:34:08.635Z,14.90
2022-09-23T07:36:40.851Z,15.18
2022-09-23T07:39:11.340Z,15.23
2022-09-23T07:41:39.505Z,15.40
2022-09-23T07:44:08.894Z,15.49
2022-09-23T07:46:37.285Z,15.34
2022-09-23T07:49:06.242Z,15.40
2022-09-23T07:51:37.007Z,15.54
2022-09-23T07:54:09.939Z,15.60
2022-09-23T07:56:38.629Z,15.62
2022-09-23T07:59:08.989Z,15.60
2022-09-23T08:01:41.225Z,15.72
2022-09-23T08:04:13.801Z,15.66
2022-09-23T08:06:46.443Z,15.57
2022-09-23T08:09:16.328Z,15.73
2022-09-23T08:11:45.260Z,17.49
2022-09-23T08:14:15.221Z,20.40
2022-09-23T08:16:44.831Z,22.84
2022-09-23T08:19:13.201Z,24.87
2022-09-23T08:21:41.827Z,26.66
2022-09-23T08:24:14.312Z,28.62
2022-09-23T08:26:43.083Z,30.25
2022-09-23T08:29:15.636Z,31.97
2022-09-23T08:31:44.045Z,33.57
2022-09-23T08:34:11.942Z,34.27
2022-09-23T08:36:39.636Z,35.99
2022-09-23T08:39:12.584Z,37.63
2022-09-23T08:41:59.455Z,39.32
2022-09-23T08:44:34.818Z,40.92
2022-09-23T08:47:10.547Z,42.13
2022-09-23T08:50:01.479Z,43.35
2022-09-23T08:52:36.436Z,44.44
2022-09-23T08:55:04.589Z,45.41
2022-09-23T08:57:36.667Z,46.25
2022-09-23T09:00:05.115Z,47.13
2022-09-23T09:02:34.754Z,47.98
2022-09-23T09:05:06.538Z,47.80
2022-09-23T09:07:37.838Z,44.92
2022-09-23T09:10:39.206Z,44.37
2022-09-23T09:13:17.024Z,40.51
2022-09-23T09:15:58.660Z,39.23
2022-09-23T09:18:30.991Z,39.90
2022-09-23T09:21:14.490Z,39.36
2022-09-23T09:23:55.046Z,40.30
2022-09-23T09:26:25.964Z,41.69
2022-09-23T09:29:17.240Z,41.27
2022-09-23T09:31:51.020Z,38.38
2022-09-23T09:34:31.002Z,36.87
2022-09-23T09:37:07.167Z,38.42
2022-09-23T09:39:36.435Z,40.99
2022-09-23T09:42:06.799Z,42.83
2022-09-23T09:44:37.095Z,43.88
2022-09-23T09:47:28.774Z,44.57
2022-09-23T09:50:11.895Z,45.54
2022-09-23T09:52:42.402Z,47.00
2022-09-23T09:55:13.324Z,47.77
2022-09-23T09:57:48.405Z,48.08
2022-09-23T10:00:35.779Z,48.29
2022-09-23T10:03:05.063Z,46.93
2022-09-23T10:05:34.361Z,45.56
2022-09-23T10:08:35.234Z,42.73
2022-09-23T10:11:08.209Z,39.87
2022-09-23T10:13:36.782Z,40.98
2022-09-23T10:16:05.050Z,40.85
2022-09-23T10:18:49.549Z,39.69
2022-09-23T10:21:25.477Z,36.55
2022-09-23T10:23:55.153Z,34.17
2022-09-23T10:26:32.470Z,35.12
2022-09-23T10:29:24.736Z,35.70
2022-09-23T10:32:17.332Z,34.10
2022-09-23T10:34:47.999Z,32.87
2022-09-23T10:37:27.760Z,32.43
2022-09-23T10:40:14.245Z,33.84
2022-09-23T10:43:13.189Z,34.49
2022-09-23T10:46:06.836Z,32.46
2022-09-23T10:48:37.839Z,30.39
2022-09-23T10:51:26.396Z,29.29
2022-09-23T10:54:13.365Z,29.45
2022-09-23T10:57:40.730Z,28.57
2022-09-23T11:00:30.412Z,27.05
2022-09-23T11:03:19.585Z,26.73
2022-09-23T11:06:11.287Z,27.46
2022-09-23T11:09:11.294Z,27.46
2022-09-23T11:12:01.279Z,26.93
2022-09-23T11:14:47.154Z,26.75
2022-09-23T11:17:27.200Z,25.65
2022-09-23T11:19:58.043Z,24.74
2022-09-23T11:22:36.088Z,24.06
2022-09-23T11:25:16.830Z,23.87
2022-09-23T11:27:58.737Z,23.42
2022-09-23T11:30:37.308Z,24.36
2022-09-23T11:33:05.718Z,25.21
2022-09-23T11:35:51.300Z,25.05
2022-09-23T11:38:29.525Z,25.72
2022-09-23T11:41:15.747Z,25.12
2022-09-23T11:43:44.589Z,24.20
2022-09-23T11:46:23.602Z,23.41
2022-09-23T11:49:22.749Z,22.48
2022-09-23T11:51:50.508Z,21.56
2022-09-23T11:54:24.520Z,21.34
2022-09-23T11:56:54.549Z,21.34
2022-09-23T11:59:38.250Z,21.28
2022-09-23T12:02:30.603Z,21.64
2022-09-23T12:05:14.127Z,21.88
2022-09-23T12:08:09.795Z,21.99
2022-09-23T12:10:41.840Z,22.50
2022-09-23T12:13:19.178Z,22.98
2022-09-23T12:16:26.303Z,23.19
2022-09-23T12:19:32.489Z,23.44
2022-09-23T12:22:36.629Z,23.61
2022-09-23T12:25:46.669Z,23.28
2022-09-23T12:28:20.735Z,22.42
2022-09-23T12:30:49.871Z,21.55
2022-09-23T12:33:27.386Z,20.97
2022-09-23T12:36:09.708Z,20.48
2022-09-23T12:38:57.728Z,19.92
2022-09-23T12:41:37.459Z,19.43
2022-09-23T12:44:12.033Z,19.14
2022-09-23T12:46:46.859Z,18.93
2022-09-23T12:49:30.009Z,18.82
2022-09-23T12:52:13.507Z,18.67
2022-09-23T12:54:42.948Z,18.39
2022-09-23T12:57:12.916Z,18.24
2022-09-23T12:59:58.531Z,18.09
2022-09-23T13:02:29.897Z,17.88
2022-09-23T13:05:22.863Z,17.77
2022-09-23T13:07:51.532Z,17.63
2022-09-23T13:10:25.076Z,17.52
2022-09-23T13:12:53.401Z,17.40
2022-09-23T13:15:26.319Z,17.30
2022-09-23T13:18:22.783Z,17.20
2022-09-23T13:20:52.083Z,17.07
2022-09-23T13:23:24.253Z,16.92
2022-09-23T13:25:58.029Z,16.82
2022-09-23T13:28:42.318Z,16.81
2022-09-23T13:31:15.153Z,16.83
2022-09-23T13:33:46.306Z,16.80
2022-09-23T13:36:17.130Z,16.72
2022-09-23T13:38:49.188Z,16.65
2022-09-23T13:41:20.751Z,16.61
2022-09-23T13:43:58.819Z,16.60
2022-09-23T13:46:30.124Z,16.62
2022-09-23T13:48:58.089Z,16.57
2022-09-23T13:51:33.354Z,16.50
2022-09-23T13:54:03.123Z,16.42
2022-09-23T13:56:33.116Z,16.30
2022-09-23T13:59:24.935Z,16.15
2022-09-23T14:02:12.333Z,15.96
2022-09-23T14:04:40.587Z,15.82
2022-09-23T14:07:10.218Z,15.73
2022-09-23T14:09:42.279Z,15.68
2022-09-23T14:12:10.735Z,15.71
2022-09-23T14:14:40.510Z,15.72
2022-09-23T14:17:08.970Z,15.70
2022-09-23T14:19:37.315Z,15.73
2022-09-23T14:22:09.195Z,16.01
2022-09-23T14:24:39.649Z,16.51
2022-09-23T14:27:08.019Z,16.88
2022-09-23T14:29:38.866Z,16.97
2022-09-23T14:32:21.042Z,16.90
2022-09-23T14:34:49.949Z,16.83
2022-09-23T14:37:54.632Z,16.74
2022-09-23T14:40:29.537Z,16.69
2022-09-23T14:43:28.955Z,16.67
2022-09-23T14:45:57.954Z,16.63
2022-09-23T14:48:31.061Z,16.56
2022-09-23T14:51:04.459Z,16.48
2022-09-23T14:53:34.705Z,16.36
2022-09-23T14:56:22.327Z,16.29
2022-09-23T14:59:00.704Z,16.18
2022-09-23T15:01:34.908Z,16.08
2022-09-23T15:04:13.156Z,16.01
2022-09-23T15:06:46.865Z,15.90
2022-09-23T15:09:23.997Z,15.77
2022-09-23T15:11:53.699Z,15.63
2022-09-23T15:14:37.090Z,15.51
2022-09-23T15:17:15.228Z,15.39
2022-09-23T15:19:43.065Z,15.30
2022-09-23T15:22:11.215Z,15.21
2022-09-23T15:24:45.991Z,15.14
2022-09-23T15:27:26.395Z,15.07
2022-09-23T15:29:54.472Z,14.96
2022-09-23T15:32:22.505Z,14.85
2022-09-23T15:34:51.315Z,14.71
2022-09-23T15:37:19.159Z,14.58
2022-09-23T15:39:48.353Z,14.45
2022-09-23T15:42:18.338Z,14.32
2022-09-23T15:44:46.260Z,14.18
2022-09-23T15:47:18.945Z,14.05
2022-09-23T15:49:47.328Z,13.93
2022-09-23T15:52:16.069Z,13.81
2022-09-23T15:54:44.755Z,13.70
2022-09-23T15:57:12.955Z,13.59
2022-09-23T15:59:41.672Z,13.48
2022-09-23T16:02:16.711Z,13.36
2022-09-23T16:04:47.322Z,13.26
2022-09-23T16:07:17.126Z,13.16
2022-09-23T16:09:44.961Z,13.04
2022-09-23T16:12:13.211Z,12.91
2022-09-23T16:14:41.016Z,12.77
2022-09-23T16:17:13.167Z,12.65
2022-09-23T16:19:41.056Z,12.51
2022-09-23T16:22:10.495Z,12.38
2022-09-23T16:24:38.228Z,12.27
2022-09-23T16:27:07.812Z,12.15
2022-09-23T16:29:35.892Z,12.04
2022-09-23T16:32:04.296Z,11.93
2022-09-23T16:34:34.870Z,11.82
2022-09-23T16:37:04.743Z,11.71
2022-09-23T16:39:32.789Z,11.58
2022-09-23T16:42:00.763Z,11.47
2022-09-23T16:44:28.633Z,11.34
2022-09-23T16:46:57.799Z,11.24
2022-09-23T16:49:27.436Z,11.12
2022-09-23T16:51:55.287Z,11.02
2022-09-23T16:54:23.896Z,10.94
2022-09-23T16:56:52.239Z,10.84
2022-09-23T16:59:20.178Z,10.73
2022-09-23T17:02:06.792Z,10.61
2022-09-23T17:04:34.684Z,10.51
2022-09-23T17:07:02.748Z,10.41
2022-09-23T17:09:31.897Z,10.32
2022-09-23T17:12:34.705Z,10.23
2022-09-23T17:15:07.444Z,10.11
2022-09-23T17:17:39.381Z,10.02
2022-09-23T17:20:07.606Z,9.94
2022-09-23T17:22:35.459Z,9.87
2022-09-23T17:25:03.923Z,9.79
2022-09-23T17:27:32.073Z,9.71
2022-09-23T17:29:59.808Z,9.63
2022-09-23T17:32:27.912Z,9.56
2022-09-23T17:34:55.695Z,9.49
2022-09-23T17:37:23.572Z,9.42
2022-09-23T17:39:51.746Z,9.36
2022-09-23T17:44:01.683Z,9.25
2022-09-23T17:46:31.027Z,9.14
2022-09-23T17:48:58.813Z,9.06
2022-09-23T17:51:27.820Z,8.98
2022-09-23T17:53:55.790Z,8.92
2022-09-23T17:56:25.646Z,8.86
2022-09-23T17:58:54.148Z,8.80
2022-09-23T18:01:24.943Z,8.75
2022-09-23T18:03:57.620Z,8.69
2022-09-23T18:06:28.885Z,8.64
2022-09-23T18:08:58.309Z,8.58
2022-09-23T18:11:27.406Z,8.53
2022-09-23T18:14:01.190Z,8.48
2022-09-23T18:16:31.527Z,8.42
2022-09-23T18:19:00.952Z,8.39
2022-09-23T18:21:31.784Z,8.38
2022-09-23T18:26:52.905Z,8.37
2022-09-23T18:29:20.716Z,8.36
2022-09-23T18:31:49.403Z,8.36
2022-09-23T18:34:17.470Z,8.38
2022-09-23T18:36:45.774Z,8.41
2022-09-23T18:39:15.012Z,8.46
2022-09-23T18:41:43.384Z,8.53
2022-09-23T18:44:11.351Z,8.57
2022-09-23T18:46:39.677Z,8.63
2022-09-23T18:49:26.334Z,8.69
2022-09-23T18:51:56.641Z,8.78
2022-09-23T18:54:28.124Z,8.84
2022-09-23T18:56:56.663Z,8.90
2022-09-23T18:59:28.031Z,8.96
2022-09-23T19:01:57.922Z,9.01
2022-09-23T19:04:27.361Z,9.06
2022-09-23T19:06:56.771Z,9.11
2022-09-23T19:09:25.453Z,9.15
2022-09-23T19:11:53.778Z,9.21
2022-09-23T19:14:21.619Z,9.26
2022-09-23T19:16:50.627Z,9.32
2022-09-23T19:19:18.599Z,9.37
2022-09-23T19:21:46.650Z,9.43
2022-09-23T19:24:19.921Z,9.49
2022-09-23T19:26:48.864Z,9.55
2022-09-23T19:29:19.604Z,9.60
2022-09-23T19:31:48.776Z,9.65
2022-09-23T19:34:19.985Z,9.70
2022-09-23T19:36:48.606Z,9.74
2022-09-23T19:39:17.501Z,9.78
2022-09-23T19:41:46.815Z,9.78
2022-09-23T19:44:15.269Z,9.79
2022-09-23T19:46:45.547Z,9.79
2022-09-23T19:49:13.795Z,9.76
2022-09-23T19:51:44.041Z,9.75
2022-09-23T19:54:14.526Z,9.71
2022-09-23T19:56:43.307Z,9.67
2022-09-23T19:59:14.168Z,9.64
2022-09-23T20:01:46.861Z,9.57
2022-09-23T20:04:15.865Z,9.49
2022-09-23T20:06:45.839Z,9.42
2022-09-23T20:09:14.110Z,9.33
2022-09-23T20:11:44.352Z,9.23
2022-09-23T20:14:13.013Z,9.15
2022-09-23T20:16:41.147Z,9.08
2022-09-23T20:19:09.837Z,9.01
2022-09-23T20:21:37.667Z,8.92
2022-09-23T20:24:07.569Z,8.85
2022-09-23T20:26:54.201Z,8.77
2022-09-23T20:29:23.789Z,8.70
2022-09-23T20:31:51.705Z,8.63
2022-09-23T20:34:20.442Z,8.54
2022-09-23T20:36:48.575Z,8.45
2022-09-23T20:39:16.336Z,8.37
2022-09-23T20:41:44.677Z,8.29
2022-09-23T20:44:13.076Z,8.20
2022-09-23T20:46:47.806Z,8.10
2022-09-23T20:49:17.598Z,8.01
2022-09-23T20:51:47.919Z,7.95
2022-09-23T20:54:19.213Z,7.89
2022-09-23T20:56:48.730Z,7.82
2022-09-23T20:59:18.936Z,7.76
2022-09-23T21:01:47.873Z,7.72
2022-09-23T21:04:16.023Z,7.66
2022-09-23T21:06:43.734Z,7.60
2022-09-23T21:09:11.751Z,7.55
2022-09-23T21:11:40.665Z,7.50
2022-09-23T21:14:08.705Z,7.43
2022-09-23T21:16:37.067Z,7.38
2022-09-23T21:19:08.250Z,7.30
2022-09-23T21:21:36.373Z,7.24
2022-09-23T21:24:33.035Z,7.17
2022-09-23T21:26:52.371Z,7.11
2022-09-23T21:29:20.144Z,7.06
2022-09-23T21:31:49.664Z,7.02
2022-09-23T21:34:18.340Z,6.98
2022-09-23T21:36:48.148Z,6.94
2022-09-23T21:39:16.040Z,6.91
2022-09-23T21:41:43.813Z,6.86
2022-09-23T21:44:11.991Z,6.81
2022-09-23T21:46:39.836Z,6.76
2022-09-23T21:49:09.093Z,6.72
2022-09-23T21:51:41.010Z,6.68
2022-09-23T21:54:14.194Z,6.66
2022-09-23T21:56:43.165Z,6.62
2022-09-23T21:59:11.437Z,6.59
2022-09-23T22:01:44.520Z,6.54
2022-09-23T22:04:20.710Z,6.49
2022-09-23T22:06:49.253Z,6.44
2022-09-23T22:09:19.163Z,6.40
2022-09-23T22:12:07.758Z,6.37
2022-09-23T22:14:38.989Z,6.33
2022-09-23T22:17:10.372Z,6.30
2022-09-23T22:19:45.793Z,6.29
2022-09-23T22:22:16.494Z,6.27
2022-09-23T22:24:46.637Z,6.26
2022-09-23T22:27:18.262Z,6.23
2022-09-23T22:30:04.654Z,6.18
2022-09-23T22:32:43.472Z,6.12
2022-09-23T22:35:13.888Z,6.06
2022-09-23T22:37:41.766Z,6.03
2022-09-23T22:40:14.549Z,5.98
2022-09-23T22:42:42.885Z,5.94
2022-09-23T22:45:13.327Z,5.91
2022-09-23T22:47:45.511Z,5.87
2022-09-23T22:50:14.754Z,5.85
2022-09-23T22:52:43.106Z,5.84
2022-09-23T22:55:11.875Z,5.84
2022-09-23T22:57:39.612Z,5.81
2022-09-23T23:00:08.503Z,5.80
2022-09-23T23:02:36.843Z,5.78
2022-09-23T23:05:05.011Z,5.74
2022-09-23T23:07:36.147Z,5.71
2022-09-23T23:10:04.746Z,5.69
2022-09-23T23:12:33.562Z,5.66
2022-09-23T23:15:01.266Z,5.63
2022-09-23T23:17:29.839Z,5.61
2022-09-23T23:19:58.087Z,5.59
2022-09-23T23:22:28.417Z,5.57
2022-09-23T23:24:56.674Z,5.55
2022-09-23T23:27:24.491Z,5.55
2022-09-23T23:29:52.434Z,5.53
2022-09-23T23:32:20.139Z,5.52
2022-09-23T23:34:47.856Z,5.51
2022-09-23T23:37:20.074Z,5.50
2022-09-23T23:39:48.951Z,5.49
2022-09-23T23:42:17.252Z,5.48
2022-09-23T23:44:45.390Z,5.48
2022-09-23T23:47:13.322Z,5.48
2022-09-23T23:49:41.182Z,5.47
2022-09-23T23:52:08.985Z,5.44
2022-09-23T23:54:36.694Z,5.40
2022-09-23T23:57:04.497Z,5.38
2022-09-23T23:59:34.399Z,5.35
